sensor_id;sensor_type;location;lat;lon;timestamp;temperature;humidity
34646;DHT22;20857;47.808;12.482;2023-05-25T00:00:51;11.30;99.90
34646;DHT22;20857;47.808;12.482;2023-05-25T00:05:44;11.30;99.90
34646;DHT22;20857;47.808;12.482;2023-05-25T00:08:09;11.30;99.90
34646;DHT22;20857;47.808;12.482;2023-05-25T00:10:35;11.30;99.90
34646;DHT22;20857;47.808;12.482;2023-05-25T00:13:00;11.20;99.90
34646;DHT22;20857;47.808;12.482;2023-05-25T00:17:52;11.30;99.90
34646;DHT22;20857;47.808;12.482;2023-05-25T00:20:18;11.30;99.90
34646;DHT22;20857;47.808;12.482;2023-05-25T00:22:44;11.20;99.90
34646;DHT22;20857;47.808;12.482;2023-05-25T00:25:10;11.20;99.90
34646;DHT22;20857;47.808;12.482;2023-05-25T00:27:36;11.20;99.90
34646;DHT22;20857;47.808;12.482;2023-05-25T00:30:01;11.30;99.90
34646;DHT22;20857;47.808;12.482;2023-05-25T00:34:53;11.20;99.90
34646;DHT22;20857;47.808;12.482;2023-05-25T00:37:19;11.30;99.90
34646;DHT22;20857;47.808;12.482;2023-05-25T00:39:44;11.30;99.90
34646;DHT22;20857;47.808;12.482;2023-05-25T00:42:10;11.30;99.90
34646;DHT22;20857;47.808;12.482;2023-05-25T00:44:35;11.30;99.90
34646;DHT22;20857;47.808;12.482;2023-05-25T00:47:01;11.40;99.90
34646;DHT22;20857;47.808;12.482;2023-05-25T00:49:33;11.40;99.90
34646;DHT22;20857;47.808;12.482;2023-05-25T00:51:59;11.40;99.90
34646;DHT22;20857;47.808;12.482;2023-05-25T00:54:24;11.30;99.90
34646;DHT22;20857;47.808;12.482;2023-05-25T00:56:52;11.40;99.90
34646;DHT22;20857;47.808;12.482;2023-05-25T00:59:25;11.30;99.90
34646;DHT22;20857;47.808;12.482;2023-05-25T01:01:52;11.30;99.90
34646;DHT22;20857;47.808;12.482;2023-05-25T01:04:18;11.10;99.90
34646;DHT22;20857;47.808;12.482;2023-05-25T01:06:46;11.10;99.90
34646;DHT22;20857;47.808;12.482;2023-05-25T01:11:39;11.00;99.90
34646;DHT22;20857;47.808;12.482;2023-05-25T01:14:06;11.00;99.90
34646;DHT22;20857;47.808;12.482;2023-05-25T01:16:32;11.10;99.90
34646;DHT22;20857;47.808;12.482;2023-05-25T01:18:58;11.20;99.90
34646;DHT22;20857;47.808;12.482;2023-05-25T01:21:24;11.30;99.90
34646;DHT22;20857;47.808;12.482;2023-05-25T01:26:45;11.30;99.90
34646;DHT22;20857;47.808;12.482;2023-05-25T01:29:11;11.30;99.90
34646;DHT22;20857;47.808;12.482;2023-05-25T01:31:38;11.30;99.90
34646;DHT22;20857;47.808;12.482;2023-05-25T01:34:03;11.30;99.90
34646;DHT22;20857;47.808;12.482;2023-05-25T01:36:29;11.30;99.90
34646;DHT22;20857;47.808;12.482;2023-05-25T01:38:56;11.30;99.90
34646;DHT22;20857;47.808;12.482;2023-05-25T01:41:22;11.20;99.90
34646;DHT22;20857;47.808;12.482;2023-05-25T01:43:47;11.10;99.90
34646;DHT22;20857;47.808;12.482;2023-05-25T01:46:18;11.00;99.90
34646;DHT22;20857;47.808;12.482;2023-05-25T01:51:24;11.00;99.90
34646;DHT22;20857;47.808;12.482;2023-05-25T01:56:22;10.90;99.90
34646;DHT22;20857;47.808;12.482;2023-05-25T02:01:16;10.90;99.90
34646;DHT22;20857;47.808;12.482;2023-05-25T02:03:42;10.90;99.90
34646;DHT22;20857;47.808;12.482;2023-05-25T02:06:09;10.90;99.90
34646;DHT22;20857;47.808;12.482;2023-05-25T02:08:34;10.90;99.90
34646;DHT22;20857;47.808;12.482;2023-05-25T02:11:00;11.00;99.90
34646;DHT22;20857;47.808;12.482;2023-05-25T02:15:52;11.00;99.90
34646;DHT22;20857;47.808;12.482;2023-05-25T02:18:17;11.00;99.90
34646;DHT22;20857;47.808;12.482;2023-05-25T02:20:43;11.00;99.90
34646;DHT22;20857;47.808;12.482;2023-05-25T02:23:09;11.00;99.90
34646;DHT22;20857;47.808;12.482;2023-05-25T02:28:00;11.10;99.90
34646;DHT22;20857;47.808;12.482;2023-05-25T02:30:26;11.10;99.90
34646;DHT22;20857;47.808;12.482;2023-05-25T02:32:51;11.20;99.90
34646;DHT22;20857;47.808;12.482;2023-05-25T02:35:18;11.20;99.90
34646;DHT22;20857;47.808;12.482;2023-05-25T02:37:43;11.10;99.90
34646;DHT22;20857;47.808;12.482;2023-05-25T02:40:09;11.10;99.90
34646;DHT22;20857;47.808;12.482;2023-05-25T02:42:35;11.10;99.90
34646;DHT22;20857;47.808;12.482;2023-05-25T02:47:26;11.10;99.90
34646;DHT22;20857;47.808;12.482;2023-05-25T02:49:52;11.10;99.90
34646;DHT22;20857;47.808;12.482;2023-05-25T02:52:17;11.20;99.90
34646;DHT22;20857;47.808;12.482;2023-05-25T02:54:43;11.40;99.90
34646;DHT22;20857;47.808;12.482;2023-05-25T02:59:34;11.30;99.90
34646;DHT22;20857;47.808;12.482;2023-05-25T03:02:00;11.30;99.90
34646;DHT22;20857;47.808;12.482;2023-05-25T03:06:51;11.30;99.90
34646;DHT22;20857;47.808;12.482;2023-05-25T03:11:43;11.40;99.90
34646;DHT22;20857;47.808;12.482;2023-05-25T03:14:09;11.40;99.90
34646;DHT22;20857;47.808;12.482;2023-05-25T03:19:03;11.40;99.90
34646;DHT22;20857;47.808;12.482;2023-05-25T03:23:55;11.50;99.90
34646;DHT22;20857;47.808;12.482;2023-05-25T03:26:21;11.50;99.90
34646;DHT22;20857;47.808;12.482;2023-05-25T03:28:47;11.50;99.90
34646;DHT22;20857;47.808;12.482;2023-05-25T03:31:12;11.50;99.90
34646;DHT22;20857;47.808;12.482;2023-05-25T03:36:07;11.60;99.90
34646;DHT22;20857;47.808;12.482;2023-05-25T03:40:59;11.60;99.90
34646;DHT22;20857;47.808;12.482;2023-05-25T03:43:24;11.60;99.90
34646;DHT22;20857;47.808;12.482;2023-05-25T03:48:16;11.60;99.90
34646;DHT22;20857;47.808;12.482;2023-05-25T03:50:41;11.70;99.90
34646;DHT22;20857;47.808;12.482;2023-05-25T03:53:06;11.60;99.90
34646;DHT22;20857;47.808;12.482;2023-05-25T03:55:32;11.50;99.90
34646;DHT22;20857;47.808;12.482;2023-05-25T04:00:24;11.60;99.90
34646;DHT22;20857;47.808;12.482;2023-05-25T04:02:49;11.60;99.90
34646;DHT22;20857;47.808;12.482;2023-05-25T04:05:15;11.70;99.90
34646;DHT22;20857;47.808;12.482;2023-05-25T04:07:40;11.70;99.90
34646;DHT22;20857;47.808;12.482;2023-05-25T04:10:06;11.80;99.90
34646;DHT22;20857;47.808;12.482;2023-05-25T04:12:32;11.70;99.90
34646;DHT22;20857;47.808;12.482;2023-05-25T04:14:57;11.80;99.90
34646;DHT22;20857;47.808;12.482;2023-05-25T04:17:23;11.80;99.90
34646;DHT22;20857;47.808;12.482;2023-05-25T04:19:49;11.90;99.90
34646;DHT22;20857;47.808;12.482;2023-05-25T04:22:16;11.80;99.90
34646;DHT22;20857;47.808;12.482;2023-05-25T04:24:41;11.80;99.90
34646;DHT22;20857;47.808;12.482;2023-05-25T04:27:07;12.00;99.90
34646;DHT22;20857;47.808;12.482;2023-05-25T04:31:58;12.00;99.90
34646;DHT22;20857;47.808;12.482;2023-05-25T04:34:24;12.00;99.90
34646;DHT22;20857;47.808;12.482;2023-05-25T04:36:49;12.10;99.90
34646;DHT22;20857;47.808;12.482;2023-05-25T04:39:15;12.10;99.90
34646;DHT22;20857;47.808;12.482;2023-05-25T04:41:44;12.20;99.90
34646;DHT22;20857;47.808;12.482;2023-05-25T04:44:09;12.20;99.90
34646;DHT22;20857;47.808;12.482;2023-05-25T04:49:02;12.20;99.90
34646;DHT22;20857;47.808;12.482;2023-05-25T04:53:54;12.20;99.90
34646;DHT22;20857;47.808;12.482;2023-05-25T04:56:20;12.20;99.90
34646;DHT22;20857;47.808;12.482;2023-05-25T04:58:50;12.20;99.90
34646;DHT22;20857;47.808;12.482;2023-05-25T05:01:16;12.30;99.90
34646;DHT22;20857;47.808;12.482;2023-05-25T05:03:41;12.40;99.90
34646;DHT22;20857;47.808;12.482;2023-05-25T05:08:35;12.40;99.90
34646;DHT22;20857;47.808;12.482;2023-05-25T05:11:00;12.50;99.90
34646;DHT22;20857;47.808;12.482;2023-05-25T05:13:28;12.60;99.90
34646;DHT22;20857;47.808;12.482;2023-05-25T05:15:54;12.70;99.90
34646;DHT22;20857;47.808;12.482;2023-05-25T05:20:46;12.80;99.90
34646;DHT22;20857;47.808;12.482;2023-05-25T05:23:12;12.80;99.90
34646;DHT22;20857;47.808;12.482;2023-05-25T05:25:37;12.90;99.90
34646;DHT22;20857;47.808;12.482;2023-05-25T05:30:29;13.10;99.90
34646;DHT22;20857;47.808;12.482;2023-05-25T05:32:54;13.20;99.90
34646;DHT22;20857;47.808;12.482;2023-05-25T05:35:20;13.40;99.90
34646;DHT22;20857;47.808;12.482;2023-05-25T05:37:46;13.50;99.90
34646;DHT22;20857;47.808;12.482;2023-05-25T05:40:12;13.70;99.90
34646;DHT22;20857;47.808;12.482;2023-05-25T05:42:38;14.00;99.90
34646;DHT22;20857;47.808;12.482;2023-05-25T05:45:03;14.20;99.90
34646;DHT22;20857;47.808;12.482;2023-05-25T05:47:29;14.40;99.90
34646;DHT22;20857;47.808;12.482;2023-05-25T05:49:54;14.60;99.90
34646;DHT22;20857;47.808;12.482;2023-05-25T05:52:20;14.80;99.90
34646;DHT22;20857;47.808;12.482;2023-05-25T05:54:46;15.00;99.90
34646;DHT22;20857;47.808;12.482;2023-05-25T05:57:11;14.70;99.90
34646;DHT22;20857;47.808;12.482;2023-05-25T06:02:03;14.70;99.90
34646;DHT22;20857;47.808;12.482;2023-05-25T06:04:28;14.90;99.90
34646;DHT22;20857;47.808;12.482;2023-05-25T06:06:54;14.80;99.90
34646;DHT22;20857;47.808;12.482;2023-05-25T06:09:19;14.60;99.90
34646;DHT22;20857;47.808;12.482;2023-05-25T06:11:45;14.50;99.90
34646;DHT22;20857;47.808;12.482;2023-05-25T06:14:11;14.40;99.90
34646;DHT22;20857;47.808;12.482;2023-05-25T06:16:37;14.50;99.90
34646;DHT22;20857;47.808;12.482;2023-05-25T06:19:04;14.40;99.90
34646;DHT22;20857;47.808;12.482;2023-05-25T06:23:55;14.60;99.90
34646;DHT22;20857;47.808;12.482;2023-05-25T06:26:22;14.50;99.90
34646;DHT22;20857;47.808;12.482;2023-05-25T06:28:47;14.30;99.90
34646;DHT22;20857;47.808;12.482;2023-05-25T06:31:14;14.20;99.90
34646;DHT22;20857;47.808;12.482;2023-05-25T06:33:39;14.20;99.90
34646;DHT22;20857;47.808;12.482;2023-05-25T06:36:05;14.30;99.90
34646;DHT22;20857;47.808;12.482;2023-05-25T06:38:31;14.30;99.90
34646;DHT22;20857;47.808;12.482;2023-05-25T06:40:56;14.20;99.90
34646;DHT22;20857;47.808;12.482;2023-05-25T06:43:26;14.30;99.90
34646;DHT22;20857;47.808;12.482;2023-05-25T06:45:52;14.20;99.90
34646;DHT22;20857;47.808;12.482;2023-05-25T06:48:17;14.20;99.90
34646;DHT22;20857;47.808;12.482;2023-05-25T06:50:43;14.10;99.90
34646;DHT22;20857;47.808;12.482;2023-05-25T06:53:10;14.10;99.90
34646;DHT22;20857;47.808;12.482;2023-05-25T06:58:01;14.30;99.90
34646;DHT22;20857;47.808;12.482;2023-05-25T07:00:27;14.40;99.90
34646;DHT22;20857;47.808;12.482;2023-05-25T07:02:52;14.50;99.90
34646;DHT22;20857;47.808;12.482;2023-05-25T07:05:18;14.50;99.90
34646;DHT22;20857;47.808;12.482;2023-05-25T07:07:43;14.50;99.90
34646;DHT22;20857;47.808;12.482;2023-05-25T07:17:27;15.00;99.90
34646;DHT22;20857;47.808;12.482;2023-05-25T07:19:55;15.20;99.90
34646;DHT22;20857;47.808;12.482;2023-05-25T07:24:48;15.40;99.90
34646;DHT22;20857;47.808;12.482;2023-05-25T07:27:13;15.50;99.90
34646;DHT22;20857;47.808;12.482;2023-05-25T07:29:39;15.60;99.90
34646;DHT22;20857;47.808;12.482;2023-05-25T07:34:30;15.90;99.90
34646;DHT22;20857;47.808;12.482;2023-05-25T07:36:56;15.90;99.90
34646;DHT22;20857;47.808;12.482;2023-05-25T07:39:21;16.10;99.90
34646;DHT22;20857;47.808;12.482;2023-05-25T07:41:47;16.20;99.90
34646;DHT22;20857;47.808;12.482;2023-05-25T07:44:12;16.10;99.90
34646;DHT22;20857;47.808;12.482;2023-05-25T07:46:38;16.00;99.90
34646;DHT22;20857;47.808;12.482;2023-05-25T07:53:57;15.70;99.90
34646;DHT22;20857;47.808;12.482;2023-05-25T07:56:23;15.70;99.90
34646;DHT22;20857;47.808;12.482;2023-05-25T08:06:13;15.70;99.90
34646;DHT22;20857;47.808;12.482;2023-05-25T08:08:39;15.70;99.90
34646;DHT22;20857;47.808;12.482;2023-05-25T08:11:06;15.70;99.90
34646;DHT22;20857;47.808;12.482;2023-05-25T08:13:31;15.70;99.90
34646;DHT22;20857;47.808;12.482;2023-05-25T08:15:57;15.80;99.90
34646;DHT22;20857;47.808;12.482;2023-05-25T08:20:48;15.80;99.90
34646;DHT22;20857;47.808;12.482;2023-05-25T08:23:14;15.70;99.90
34646;DHT22;20857;47.808;12.482;2023-05-25T08:25:39;15.60;99.90
34646;DHT22;20857;47.808;12.482;2023-05-25T08:28:05;15.40;99.90
34646;DHT22;20857;47.808;12.482;2023-05-25T08:32:58;15.80;99.90
34646;DHT22;20857;47.808;12.482;2023-05-25T08:35:23;15.80;99.90
34646;DHT22;20857;47.808;12.482;2023-05-25T08:40:15;15.90;99.90
34646;DHT22;20857;47.808;12.482;2023-05-25T08:42:41;15.90;99.90
34646;DHT22;20857;47.808;12.482;2023-05-25T08:45:07;15.90;99.90
34646;DHT22;20857;47.808;12.482;2023-05-25T08:50:00;16.30;99.90
34646;DHT22;20857;47.808;12.482;2023-05-25T08:52:25;16.50;99.90
34646;DHT22;20857;47.808;12.482;2023-05-25T08:54:53;16.80;99.90
34646;DHT22;20857;47.808;12.482;2023-05-25T08:57:22;16.90;99.90
34646;DHT22;20857;47.808;12.482;2023-05-25T08:59:52;17.00;99.90
34646;DHT22;20857;47.808;12.482;2023-05-25T09:02:41;17.40;99.90
34646;DHT22;20857;47.808;12.482;2023-05-25T09:07:35;17.80;99.90
34646;DHT22;20857;47.808;12.482;2023-05-25T09:10:00;17.90;99.90
34646;DHT22;20857;47.808;12.482;2023-05-25T09:14:52;17.90;99.90
34646;DHT22;20857;47.808;12.482;2023-05-25T09:19:45;18.00;99.90
34646;DHT22;20857;47.808;12.482;2023-05-25T09:22:11;18.20;99.90
34646;DHT22;20857;47.808;12.482;2023-05-25T09:24:37;18.60;99.90
34646;DHT22;20857;47.808;12.482;2023-05-25T09:27:05;18.90;99.90
34646;DHT22;20857;47.808;12.482;2023-05-25T09:29:31;19.20;99.90
34646;DHT22;20857;47.808;12.482;2023-05-25T09:34:23;18.80;99.90
34646;DHT22;20857;47.808;12.482;2023-05-25T09:36:48;18.70;99.90
34646;DHT22;20857;47.808;12.482;2023-05-25T09:39:14;18.80;99.90
34646;DHT22;20857;47.808;12.482;2023-05-25T09:41:39;18.50;99.90
34646;DHT22;20857;47.808;12.482;2023-05-25T09:46:31;18.60;99.90
34646;DHT22;20857;47.808;12.482;2023-05-25T09:49:05;18.60;99.90
34646;DHT22;20857;47.808;12.482;2023-05-25T09:53:59;18.70;99.90
34646;DHT22;20857;47.808;12.482;2023-05-25T09:56:25;18.80;99.90
34646;DHT22;20857;47.808;12.482;2023-05-25T09:58:51;19.00;99.90
34646;DHT22;20857;47.808;12.482;2023-05-25T10:01:17;19.10;99.90
34646;DHT22;20857;47.808;12.482;2023-05-25T10:03:46;19.10;99.90
34646;DHT22;20857;47.808;12.482;2023-05-25T10:06:15;18.60;99.90
34646;DHT22;20857;47.808;12.482;2023-05-25T10:08:44;18.50;99.90
34646;DHT22;20857;47.808;12.482;2023-05-25T10:11:13;18.20;99.90
34646;DHT22;20857;47.808;12.482;2023-05-25T10:13:39;18.00;99.90
34646;DHT22;20857;47.808;12.482;2023-05-25T10:16:06;18.00;99.90
34646;DHT22;20857;47.808;12.482;2023-05-25T10:18:34;18.20;99.90
34646;DHT22;20857;47.808;12.482;2023-05-25T10:21:01;18.50;99.90
34646;DHT22;20857;47.808;12.482;2023-05-25T10:23:29;18.30;99.90
34646;DHT22;20857;47.808;12.482;2023-05-25T10:25:57;18.20;99.90
34646;DHT22;20857;47.808;12.482;2023-05-25T10:28:28;18.00;99.90
34646;DHT22;20857;47.808;12.482;2023-05-25T10:30:54;17.90;99.90
34646;DHT22;20857;47.808;12.482;2023-05-25T10:33:20;18.10;99.90
34646;DHT22;20857;47.808;12.482;2023-05-25T10:35:48;18.50;99.90
34646;DHT22;20857;47.808;12.482;2023-05-25T10:38:13;18.80;99.90
34646;DHT22;20857;47.808;12.482;2023-05-25T10:40:39;19.20;99.90
34646;DHT22;20857;47.808;12.482;2023-05-25T10:43:05;19.70;99.90
34646;DHT22;20857;47.808;12.482;2023-05-25T10:48:00;19.80;99.90
34646;DHT22;20857;47.808;12.482;2023-05-25T10:50:25;19.80;99.90
34646;DHT22;20857;47.808;12.482;2023-05-25T10:52:58;19.90;99.90
34646;DHT22;20857;47.808;12.482;2023-05-25T10:58:12;20.00;99.90
34646;DHT22;20857;47.808;12.482;2023-05-25T11:00:38;19.80;99.90
34646;DHT22;20857;47.808;12.482;2023-05-25T11:03:04;20.30;99.90
34646;DHT22;20857;47.808;12.482;2023-05-25T11:05:30;20.30;99.90
34646;DHT22;20857;47.808;12.482;2023-05-25T11:07:57;19.90;99.90
34646;DHT22;20857;47.808;12.482;2023-05-25T11:18:38;20.90;99.90
34646;DHT22;20857;47.808;12.482;2023-05-25T11:23:29;21.00;99.90
34646;DHT22;20857;47.808;12.482;2023-05-25T11:25:55;20.80;99.90
34646;DHT22;20857;47.808;12.482;2023-05-25T11:28:30;20.60;99.90
34646;DHT22;20857;47.808;12.482;2023-05-25T11:33:22;20.40;99.90
34646;DHT22;20857;47.808;12.482;2023-05-25T11:38:15;20.60;99.90
34646;DHT22;20857;47.808;12.482;2023-05-25T11:40:40;20.90;99.90
34646;DHT22;20857;47.808;12.482;2023-05-25T11:43:06;21.20;99.90
34646;DHT22;20857;47.808;12.482;2023-05-25T11:45:32;20.80;99.90
34646;DHT22;20857;47.808;12.482;2023-05-25T11:47:58;20.80;99.90
34646;DHT22;20857;47.808;12.482;2023-05-25T11:50:23;20.80;99.90
34646;DHT22;20857;47.808;12.482;2023-05-25T11:52:49;20.70;99.90
34646;DHT22;20857;47.808;12.482;2023-05-25T11:55:15;20.60;99.90
34646;DHT22;20857;47.808;12.482;2023-05-25T11:57:40;20.70;99.90
34646;DHT22;20857;47.808;12.482;2023-05-25T12:00:06;20.30;99.90
34646;DHT22;20857;47.808;12.482;2023-05-25T12:02:36;20.70;99.90
34646;DHT22;20857;47.808;12.482;2023-05-25T12:05:01;21.70;99.90
34646;DHT22;20857;47.808;12.482;2023-05-25T12:07:28;21.70;99.90
34646;DHT22;20857;47.808;12.482;2023-05-25T12:10:12;21.10;99.90
34646;DHT22;20857;47.808;12.482;2023-05-25T12:15:11;21.10;99.90
34646;DHT22;20857;47.808;12.482;2023-05-25T12:17:39;21.90;99.90
34646;DHT22;20857;47.808;12.482;2023-05-25T12:20:05;22.10;99.90
34646;DHT22;20857;47.808;12.482;2023-05-25T12:22:32;22.00;99.90
34646;DHT22;20857;47.808;12.482;2023-05-25T12:24:57;20.90;99.90
34646;DHT22;20857;47.808;12.482;2023-05-25T12:27:23;20.80;99.90
34646;DHT22;20857;47.808;12.482;2023-05-25T12:29:48;22.00;99.90
34646;DHT22;20857;47.808;12.482;2023-05-25T12:32:14;22.50;99.90
34646;DHT22;20857;47.808;12.482;2023-05-25T12:34:40;22.70;99.90
34646;DHT22;20857;47.808;12.482;2023-05-25T12:37:16;21.80;99.90
34646;DHT22;20857;47.808;12.482;2023-05-25T12:39:43;23.20;99.90
34646;DHT22;20857;47.808;12.482;2023-05-25T12:44:35;25.10;99.90
34646;DHT22;20857;47.808;12.482;2023-05-25T12:47:16;24.80;99.90
34646;DHT22;20857;47.808;12.482;2023-05-25T12:49:53;23.70;99.90
34646;DHT22;20857;47.808;12.482;2023-05-25T12:52:34;23.50;99.90
34646;DHT22;20857;47.808;12.482;2023-05-25T12:57:45;23.80;99.90
34646;DHT22;20857;47.808;12.482;2023-05-25T13:00:12;23.30;99.90
34646;DHT22;20857;47.808;12.482;2023-05-25T13:02:41;23.00;99.90
34646;DHT22;20857;47.808;12.482;2023-05-25T13:05:15;23.30;99.90
34646;DHT22;20857;47.808;12.482;2023-05-25T13:07:41;23.60;99.90
34646;DHT22;20857;47.808;12.482;2023-05-25T13:10:06;23.60;99.90
34646;DHT22;20857;47.808;12.482;2023-05-25T13:12:33;23.50;99.90
34646;DHT22;20857;47.808;12.482;2023-05-25T13:14:59;22.70;99.90
34646;DHT22;20857;47.808;12.482;2023-05-25T13:17:25;22.30;99.90
34646;DHT22;20857;47.808;12.482;2023-05-25T13:19:50;22.30;99.90
34646;DHT22;20857;47.808;12.482;2023-05-25T13:22:16;22.70;99.90
34646;DHT22;20857;47.808;12.482;2023-05-25T13:24:41;23.10;99.90
34646;DHT22;20857;47.808;12.482;2023-05-25T13:27:07;22.90;99.90
34646;DHT22;20857;47.808;12.482;2023-05-25T13:29:32;24.80;99.90
34646;DHT22;20857;47.808;12.482;2023-05-25T13:31:58;25.10;99.90
34646;DHT22;20857;47.808;12.482;2023-05-25T13:34:23;25.20;99.90
34646;DHT22;20857;47.808;12.482;2023-05-25T13:36:48;26.20;99.90
34646;DHT22;20857;47.808;12.482;2023-05-25T13:39:14;27.10;99.90
34646;DHT22;20857;47.808;12.482;2023-05-25T13:41:39;26.80;99.90
34646;DHT22;20857;47.808;12.482;2023-05-25T13:44:05;25.30;99.90
34646;DHT22;20857;47.808;12.482;2023-05-25T13:46:31;26.00;99.90
34646;DHT22;20857;47.808;12.482;2023-05-25T13:48:56;25.90;99.90
34646;DHT22;20857;47.808;12.482;2023-05-25T13:51:22;26.40;99.90
34646;DHT22;20857;47.808;12.482;2023-05-25T13:53:47;26.70;99.90
34646;DHT22;20857;47.808;12.482;2023-05-25T13:56:13;26.90;99.90
34646;DHT22;20857;47.808;12.482;2023-05-25T13:58:39;27.70;99.20
34646;DHT22;20857;47.808;12.482;2023-05-25T14:01:04;28.00;99.80
34646;DHT22;20857;47.808;12.482;2023-05-25T14:03:30;27.70;98.90
34646;DHT22;20857;47.808;12.482;2023-05-25T14:05:56;27.10;99.30
34646;DHT22;20857;47.808;12.482;2023-05-25T14:08:21;26.50;99.90
34646;DHT22;20857;47.808;12.482;2023-05-25T14:10:47;27.20;99.30
34646;DHT22;20857;47.808;12.482;2023-05-25T14:13:12;27.10;99.90
34646;DHT22;20857;47.808;12.482;2023-05-25T14:15:38;26.20;99.80
34646;DHT22;20857;47.808;12.482;2023-05-25T14:18:03;27.00;99.70
34646;DHT22;20857;47.808;12.482;2023-05-25T14:20:29;27.30;98.90
34646;DHT22;20857;47.808;12.482;2023-05-25T14:22:58;28.30;98.00
34646;DHT22;20857;47.808;12.482;2023-05-25T14:25:23;27.90;98.40
34646;DHT22;20857;47.808;12.482;2023-05-25T14:27:49;27.80;98.20
34646;DHT22;20857;47.808;12.482;2023-05-25T14:30:14;26.80;98.70
34646;DHT22;20857;47.808;12.482;2023-05-25T14:32:40;26.90;98.60
34646;DHT22;20857;47.808;12.482;2023-05-25T14:35:05;26.90;99.70
34646;DHT22;20857;47.808;12.482;2023-05-25T14:37:31;27.00;98.80
34646;DHT22;20857;47.808;12.482;2023-05-25T14:39:56;27.60;97.70
34646;DHT22;20857;47.808;12.482;2023-05-25T14:42:22;28.00;97.70
34646;DHT22;20857;47.808;12.482;2023-05-25T14:44:48;28.50;97.80
34646;DHT22;20857;47.808;12.482;2023-05-25T14:47:13;28.40;97.40
34646;DHT22;20857;47.808;12.482;2023-05-25T14:49:38;28.70;96.80
34646;DHT22;20857;47.808;12.482;2023-05-25T14:52:04;28.90;97.40
34646;DHT22;20857;47.808;12.482;2023-05-25T14:54:29;28.20;97.20
34646;DHT22;20857;47.808;12.482;2023-05-25T14:56:55;27.90;97.70
34646;DHT22;20857;47.808;12.482;2023-05-25T14:59:20;28.80;96.00
34646;DHT22;20857;47.808;12.482;2023-05-25T15:01:46;28.80;95.90
34646;DHT22;20857;47.808;12.482;2023-05-25T15:04:11;28.80;96.50
34646;DHT22;20857;47.808;12.482;2023-05-25T15:06:38;28.20;97.70
34646;DHT22;20857;47.808;12.482;2023-05-25T15:09:04;28.40;96.60
34646;DHT22;20857;47.808;12.482;2023-05-25T15:11:30;28.30;96.70
34646;DHT22;20857;47.808;12.482;2023-05-25T15:13:55;27.90;97.30
34646;DHT22;20857;47.808;12.482;2023-05-25T15:16:23;27.30;98.30
34646;DHT22;20857;47.808;12.482;2023-05-25T15:18:48;26.70;98.10
34646;DHT22;20857;47.808;12.482;2023-05-25T15:21:15;26.10;98.30
34646;DHT22;20857;47.808;12.482;2023-05-25T15:23:40;26.20;98.40
34646;DHT22;20857;47.808;12.482;2023-05-25T15:26:06;27.30;98.50
34646;DHT22;20857;47.808;12.482;2023-05-25T15:28:32;28.90;96.80
34646;DHT22;20857;47.808;12.482;2023-05-25T15:30:58;30.00;95.90
34646;DHT22;20857;47.808;12.482;2023-05-25T15:33:23;30.30;95.00
34646;DHT22;20857;47.808;12.482;2023-05-25T15:35:49;28.70;95.70
34646;DHT22;20857;47.808;12.482;2023-05-25T15:38:15;26.60;97.10
34646;DHT22;20857;47.808;12.482;2023-05-25T15:40:40;25.40;98.60
34646;DHT22;20857;47.808;12.482;2023-05-25T15:43:06;25.50;98.80
34646;DHT22;20857;47.808;12.482;2023-05-25T15:45:31;27.00;98.30
34646;DHT22;20857;47.808;12.482;2023-05-25T15:47:57;27.10;97.70
34646;DHT22;20857;47.808;12.482;2023-05-25T15:50:22;28.00;97.70
34646;DHT22;20857;47.808;12.482;2023-05-25T15:52:47;28.30;97.40
34646;DHT22;20857;47.808;12.482;2023-05-25T15:55:13;27.80;97.10
34646;DHT22;20857;47.808;12.482;2023-05-25T15:57:38;26.10;98.20
34646;DHT22;20857;47.808;12.482;2023-05-25T16:00:04;25.60;99.10
34646;DHT22;20857;47.808;12.482;2023-05-25T16:02:30;25.60;99.30
34646;DHT22;20857;47.808;12.482;2023-05-25T16:04:56;25.80;99.80
34646;DHT22;20857;47.808;12.482;2023-05-25T16:07:21;26.60;98.90
34646;DHT22;20857;47.808;12.482;2023-05-25T16:09:47;27.80;97.60
34646;DHT22;20857;47.808;12.482;2023-05-25T16:12:12;28.00;97.50
34646;DHT22;20857;47.808;12.482;2023-05-25T16:14:37;26.20;97.40
34646;DHT22;20857;47.808;12.482;2023-05-25T16:17:03;25.10;98.50
34646;DHT22;20857;47.808;12.482;2023-05-25T16:19:29;24.40;99.90
34646;DHT22;20857;47.808;12.482;2023-05-25T16:21:54;23.20;99.90
34646;DHT22;20857;47.808;12.482;2023-05-25T16:24:20;23.60;99.90
34646;DHT22;20857;47.808;12.482;2023-05-25T16:26:45;24.30;99.90
34646;DHT22;20857;47.808;12.482;2023-05-25T16:29:11;23.50;99.90
34646;DHT22;20857;47.808;12.482;2023-05-25T16:31:36;23.50;99.90
34646;DHT22;20857;47.808;12.482;2023-05-25T16:34:01;23.30;99.90
34646;DHT22;20857;47.808;12.482;2023-05-25T16:36:27;22.80;99.90
34646;DHT22;20857;47.808;12.482;2023-05-25T16:41:18;25.40;99.90
34646;DHT22;20857;47.808;12.482;2023-05-25T16:43:44;25.80;99.90
34646;DHT22;20857;47.808;12.482;2023-05-25T16:46:09;28.30;96.70
34646;DHT22;20857;47.808;12.482;2023-05-25T16:48:35;28.30;97.50
34646;DHT22;20857;47.808;12.482;2023-05-25T16:51:01;28.10;97.20
34646;DHT22;20857;47.808;12.482;2023-05-25T16:53:26;27.40;97.10
34646;DHT22;20857;47.808;12.482;2023-05-25T16:55:52;27.20;98.10
34646;DHT22;20857;47.808;12.482;2023-05-25T16:58:17;26.70;97.90
34646;DHT22;20857;47.808;12.482;2023-05-25T17:00:43;25.70;98.50
34646;DHT22;20857;47.808;12.482;2023-05-25T17:03:08;25.50;99.30
34646;DHT22;20857;47.808;12.482;2023-05-25T17:05:34;26.30;98.80
34646;DHT22;20857;47.808;12.482;2023-05-25T17:07:59;26.50;98.20
34646;DHT22;20857;47.808;12.482;2023-05-25T17:10:25;27.30;97.60
34646;DHT22;20857;47.808;12.482;2023-05-25T17:12:50;27.80;96.80
34646;DHT22;20857;47.808;12.482;2023-05-25T17:15:16;27.70;97.60
34646;DHT22;20857;47.808;12.482;2023-05-25T17:17:41;27.90;95.80
34646;DHT22;20857;47.808;12.482;2023-05-25T17:20:07;27.80;96.60
34646;DHT22;20857;47.808;12.482;2023-05-25T17:22:33;27.40;96.00
34646;DHT22;20857;47.808;12.482;2023-05-25T17:24:58;26.50;96.70
34646;DHT22;20857;47.808;12.482;2023-05-25T17:27:24;26.10;97.80
34646;DHT22;20857;47.808;12.482;2023-05-25T17:29:49;25.90;97.90
34646;DHT22;20857;47.808;12.482;2023-05-25T17:32:15;25.80;98.10
34646;DHT22;20857;47.808;12.482;2023-05-25T17:34:40;25.60;98.40
34646;DHT22;20857;47.808;12.482;2023-05-25T17:37:06;25.40;98.90
34646;DHT22;20857;47.808;12.482;2023-05-25T17:39:31;25.10;99.40